Time;durP1;ratioP1;P1;durP2;ratioP2;P2;SDS_P1;SDS_P2;PMS_P1;PMS_P2;Temp;Humidity;BMP_temperature;BMP_pressure;BME280_temperature;BME280_humidity;BME280_pressure;Samples;Min_cycle;Max_cycle;Signal;HPM_P1;HPM_P2
2021/07/25 00:00:07;;;;;;;1.73;1.27;;;31.30;99.90;;;;;;6217641;23;20194;-96
2021/07/25 00:02:38;;;;;;;2.30;1.27;;;31.30;99.90;;;;;;6191256;23;20259;-95
2021/07/25 00:05:11;;;;;;;1.30;1.20;;;31.10;99.90;;;;;;6218597;23;20173;-95
2021/07/25 00:07:42;;;;;;;2.80;1.80;;;31.30;99.90;;;;;;6218230;23;20254;-95
2021/07/25 00:10:14;;;;;;;3.70;1.30;;;31.20;99.90;;;;;;6217663;23;20260;-95
2021/07/25 00:12:44;;;;;;;1.60;1.10;;;31.40;99.90;;;;;;6217377;23;20239;-96
2021/07/25 00:15:16;;;;;;;2.15;1.35;;;31.30;99.90;;;;;;6218102;23;20204;-96
2021/07/25 00:17:48;;;;;;;2.45;1.15;;;31.30;99.90;;;;;;6218657;23;20180;-96
2021/07/25 00:20:19;;;;;;;1.40;1.30;;;31.20;99.90;;;;;;6227055;23;20168;-95
2021/07/25 00:22:51;;;;;;;1.07;0.97;;;30.80;99.90;;;;;;6216109;23;20180;-96
2021/07/25 00:25:22;;;;;;;1.33;1.23;;;30.50;99.80;;;;;;6241914;23;20164;-96
2021/07/25 00:27:55;;;;;;;1.27;1.17;;;30.40;99.90;;;;;;6229016;23;20607;-96
2021/07/25 00:30:29;;;;;;;1.43;1.33;;;30.60;99.90;;;;;;6217772;23;20251;-96
2021/07/25 00:33:01;;;;;;;2.07;1.30;;;30.50;99.90;;;;;;6216593;23;20218;-95
2021/07/25 00:35:32;;;;;;;1.30;1.20;;;30.50;99.40;;;;;;6192397;23;20165;-96
2021/07/25 00:38:04;;;;;;;3.73;1.40;;;30.50;99.50;;;;;;6218021;23;20200;-95
2021/07/25 00:40:40;;;;;;;1.67;1.40;;;30.40;99.20;;;;;;6218088;23;20236;-96
2021/07/25 00:43:11;;;;;;;1.30;1.20;;;30.10;99.40;;;;;;6217589;23;20182;-95
2021/07/25 00:48:30;;;;;;;1.33;1.20;;;30.10;99.90;;;;;;6218068;23;20165;-95
2021/07/25 00:51:01;;;;;;;2.07;1.30;;;30.10;99.70;;;;;;6217793;23;20180;-96
2021/07/25 00:53:36;;;;;;;1.97;1.20;;;30.00;99.90;;;;;;6217413;23;20593;-95
2021/07/25 00:56:20;;;;;;;1.30;1.20;;;30.10;99.90;;;;;;6223653;23;20177;-96
2021/07/25 00:58:52;;;;;;;2.13;1.20;;;30.20;99.90;;;;;;6217697;23;20235;-95
2021/07/25 01:01:25;;;;;;;1.40;1.17;;;30.20;99.90;;;;;;6190523;23;20237;-95
2021/07/25 01:04:11;;;;;;;3.37;1.40;;;30.00;99.60;;;;;;6218924;23;20173;-95
2021/07/25 01:07:09;;;;;;;2.93;1.20;;;29.90;99.10;;;;;;6217492;23;20176;-96
2021/07/25 01:09:49;;;;;;;1.50;1.20;;;30.10;99.50;;;;;;6218431;23;20191;-94
2021/07/25 01:12:24;;;;;;;2.30;1.30;;;30.50;99.80;;;;;;6217051;23;20642;-95
2021/07/25 01:14:57;;;;;;;1.63;1.30;;;30.90;98.80;;;;;;6218058;23;20200;-95
2021/07/25 01:17:37;;;;;;;1.50;1.40;;;31.20;98.80;;;;;;6217270;23;20203;-96
2021/07/25 01:20:13;;;;;;;1.30;1.20;;;31.50;97.50;;;;;;6217470;23;20180;-96
2021/07/25 01:22:46;;;;;;;1.33;1.23;;;31.50;97.60;;;;;;6217799;23;20271;-95
2021/07/25 01:25:19;;;;;;;1.57;1.30;;;31.50;97.70;;;;;;6218021;23;20208;-95
2021/07/25 01:27:54;;;;;;;1.27;1.10;;;32.10;97.80;;;;;;6217496;23;20520;-96
2021/07/25 01:30:29;;;;;;;1.45;1.08;;;32.20;97.60;;;;;;6217368;23;20638;-95
2021/07/25 01:33:04;;;;;;;1.57;1.40;;;32.10;96.90;;;;;;6216895;23;20511;-95
2021/07/25 01:35:38;;;;;;;1.40;1.17;;;32.20;97.20;;;;;;6217376;23;20551;-96
2021/07/25 01:38:10;;;;;;;1.55;1.30;;;32.40;97.00;;;;;;6217886;23;20207;-96
2021/07/25 01:40:41;;;;;;;1.40;1.30;;;32.30;96.70;;;;;;6217629;23;20180;-96
2021/07/25 01:43:14;;;;;;;2.03;1.50;;;32.20;97.00;;;;;;6218486;23;20176;-96
2021/07/25 01:45:45;;;;;;;1.73;1.13;;;32.20;96.30;;;;;;6218359;23;20169;-95
2021/07/25 01:48:17;;;;;;;1.65;1.48;;;31.80;96.60;;;;;;6217854;23;20172;-95
2021/07/25 01:50:50;;;;;;;1.73;1.40;;;31.50;96.50;;;;;;6192438;23;20482;-94
2021/07/25 01:53:21;;;;;;;1.90;1.70;;;31.30;97.20;;;;;;6216719;23;20184;-95
2021/07/25 01:55:52;;;;;;;2.67;1.65;;;31.50;96.80;;;;;;6220998;23;20191;-95
2021/07/25 01:58:23;;;;;;;1.60;1.40;;;31.80;97.00;;;;;;6217581;23;20234;-95
2021/07/25 02:00:55;;;;;;;1.60;1.50;;;32.20;96.70;;;;;;6192904;23;20549;-96
2021/07/25 02:03:28;;;;;;;2.70;1.50;;;32.30;97.10;;;;;;6219142;23;20172;-96
2021/07/25 02:06:10;;;;;;;2.70;1.52;;;32.10;96.80;;;;;;6222763;23;20180;-96
2021/07/25 02:08:41;;;;;;;4.17;1.50;;;32.30;96.80;;;;;;6221472;23;20176;-95
2021/07/25 02:11:12;;;;;;;2.27;1.50;;;32.00;96.50;;;;;;6224840;23;20185;-95
2021/07/25 02:13:43;;;;;;;1.77;1.40;;;31.80;96.80;;;;;;6224135;23;20530;-96
2021/07/25 02:16:15;;;;;;;2.60;1.40;;;30.90;97.20;;;;;;6225716;23;20474;-96
2021/07/25 02:18:47;;;;;;;1.67;1.40;;;29.40;98.20;;;;;;6226100;23;20177;-95
2021/07/25 02:21:20;;;;;;;4.50;1.73;;;28.50;99.00;;;;;;6235279;22;20184;-94
2021/07/25 02:23:52;;;;;;;1.53;1.40;;;27.90;99.50;;;;;;6241569;22;20184;-95
2021/07/25 02:26:24;;;;;;;1.87;1.30;;;27.40;99.90;;;;;;6241257;22;20180;-95
2021/07/25 02:28:55;;;;;;;1.63;1.53;;;27.00;99.90;;;;;;6241161;22;20157;-96
2021/07/25 02:31:27;;;;;;;1.70;1.60;;;26.80;99.90;;;;;;6240666;22;20180;-96
2021/07/25 02:34:07;;;;;;;2.93;1.30;;;26.60;99.90;;;;;;6190362;23;20192;-95
2021/07/25 02:36:41;;;;;;;1.73;1.20;;;26.50;99.90;;;;;;6229161;23;20180;-96
2021/07/25 02:39:13;;;;;;;1.50;1.20;;;26.20;99.90;;;;;;6219534;23;20203;-96
2021/07/25 02:41:49;;;;;;;3.23;1.27;;;26.00;99.90;;;;;;6192347;23;20176;-96
2021/07/25 02:44:20;;;;;;;2.77;1.10;;;25.80;99.90;;;;;;6217931;23;20187;-95
2021/07/25 02:46:53;;;;;;;1.60;1.17;;;25.70;99.90;;;;;;6218792;23;20176;-96
2021/07/25 02:49:24;;;;;;;1.63;1.00;;;25.40;99.90;;;;;;6215263;22;20160;-95
2021/07/25 02:52:01;;;;;;;1.43;1.33;;;25.30;99.90;;;;;;6241314;22;20184;-95
2021/07/25 02:54:32;;;;;;;1.53;1.23;;;25.20;99.90;;;;;;6240816;22;20184;-95
2021/07/25 02:57:03;;;;;;;2.17;1.30;;;25.00;99.90;;;;;;6240232;22;20167;-96
2021/07/25 02:59:34;;;;;;;1.83;1.20;;;24.90;99.90;;;;;;6241801;23;20187;-95
2021/07/25 03:02:05;;;;;;;1.23;1.00;;;24.80;99.90;;;;;;6224298;23;20614;-95
2021/07/25 03:04:37;;;;;;;2.17;1.23;;;24.70;99.90;;;;;;6193995;23;20176;-94
2021/07/25 03:07:10;;;;;;;2.60;0.90;;;24.50;99.90;;;;;;6218569;23;20219;-94
2021/07/25 03:09:41;;;;;;;1.13;0.90;;;24.50;99.90;;;;;;6218570;23;20176;-94
2021/07/25 03:12:12;;;;;;;1.20;0.90;;;24.40;99.90;;;;;;6218656;23;20247;-94
2021/07/25 03:14:43;;;;;;;1.10;0.80;;;24.30;99.90;;;;;;6218984;23;20224;-94
2021/07/25 03:17:14;;;;;;;3.53;0.90;;;24.20;99.90;;;;;;6219183;23;20522;-95
2021/07/25 03:19:46;;;;;;;1.20;1.00;;;24.10;99.90;;;;;;6218459;23;20202;-95
2021/07/25 03:22:21;;;;;;;1.17;0.87;;;24.10;99.90;;;;;;6217594;23;20196;-95
2021/07/25 03:24:55;;;;;;;1.00;0.97;;;24.00;99.90;;;;;;6193639;23;20178;-95
2021/07/25 03:27:27;;;;;;;0.80;0.80;;;24.00;99.90;;;;;;6218350;23;20639;-94
2021/07/25 03:29:59;;;;;;;0.83;0.80;;;23.90;99.90;;;;;;6218958;23;20211;-93
2021/07/25 03:32:39;;;;;;;0.80;0.73;;;23.80;99.90;;;;;;6218565;23;20184;-95
2021/07/25 03:35:11;;;;;;;1.20;0.80;;;23.80;99.90;;;;;;6218617;23;20196;-94
2021/07/25 03:37:47;;;;;;;1.40;0.70;;;23.70;99.90;;;;;;6218858;23;20182;-94
2021/07/25 03:40:20;;;;;;;1.17;0.80;;;23.60;99.90;;;;;;6218665;23;20177;-93
2021/07/25 03:42:55;;;;;;;3.13;0.70;;;23.50;99.90;;;;;;6193560;23;20160;-94
2021/07/25 03:45:26;;;;;;;0.97;0.90;;;23.40;99.90;;;;;;6193925;23;20169;-94
2021/07/25 03:47:58;;;;;;;1.27;1.07;;;23.30;99.90;;;;;;6202328;23;20611;-93
2021/07/25 03:50:29;;;;;;;0.90;0.80;;;23.30;99.90;;;;;;6222497;23;20184;-94
2021/07/25 03:53:03;;;;;;;1.80;0.93;;;23.20;99.90;;;;;;6202168;23;20187;-94
2021/07/25 03:55:39;;;;;;;1.00;0.87;;;23.10;99.90;;;;;;6199655;23;20264;-94
2021/07/25 03:58:11;;;;;;;1.40;1.00;;;23.00;99.90;;;;;;6202481;23;20206;-94
2021/07/25 04:00:42;;;;;;;1.00;0.90;;;22.90;99.90;;;;;;6200585;23;20172;-94
2021/07/25 04:03:13;;;;;;;1.87;1.10;;;22.80;99.90;;;;;;6227818;23;20228;-95
2021/07/25 04:05:44;;;;;;;2.37;0.93;;;22.70;99.90;;;;;;6218191;23;20199;-95
2021/07/25 04:08:17;;;;;;;1.00;0.90;;;22.70;99.90;;;;;;6219029;23;20204;-94
2021/07/25 04:10:49;;;;;;;1.53;0.83;;;22.60;99.90;;;;;;6218764;23;20248;-96
2021/07/25 04:13:20;;;;;;;0.80;0.80;;;22.50;99.90;;;;;;6217237;23;20557;-95
2021/07/25 04:15:51;;;;;;;1.17;0.90;;;22.40;99.90;;;;;;6217774;23;20238;-96
2021/07/25 04:18:22;;;;;;;1.03;0.90;;;22.40;99.90;;;;;;6218135;23;20176;-90
2021/07/25 04:20:54;;;;;;;1.73;0.90;;;22.40;99.90;;;;;;6223025;23;20180;-96
2021/07/25 04:23:31;;;;;;;1.00;0.80;;;22.30;99.90;;;;;;6225560;23;20202;-96
2021/07/25 04:26:03;;;;;;;2.10;0.97;;;22.20;99.90;;;;;;6219813;23;20176;-96
2021/07/25 04:28:35;;;;;;;1.20;0.77;;;22.10;99.90;;;;;;6219890;23;20643;-95
2021/07/25 04:31:07;;;;;;;1.30;0.77;;;22.00;99.90;;;;;;6192475;23;20188;-95
2021/07/25 04:33:43;;;;;;;3.40;1.00;;;21.90;99.90;;;;;;6215658;23;20264;-95
2021/07/25 04:36:24;;;;;;;0.80;0.80;;;21.90;99.90;;;;;;6215876;23;20219;-96
2021/07/25 04:39:00;;;;;;;1.97;0.80;;;21.80;99.90;;;;;;6216809;23;20556;-96
2021/07/25 04:41:35;;;;;;;2.47;0.90;;;21.70;99.90;;;;;;6215619;23;20223;-96
2021/07/25 04:44:09;;;;;;;1.97;0.80;;;21.70;99.90;;;;;;6216312;23;20211;-94
2021/07/25 04:46:47;;;;;;;1.80;0.73;;;21.60;99.90;;;;;;6216830;23;20207;-96
2021/07/25 04:49:19;;;;;;;1.27;0.60;;;21.60;99.90;;;;;;6218040;23;20184;-96
2021/07/25 04:51:54;;;;;;;2.40;0.60;;;21.40;99.90;;;;;;6216885;23;20180;-96
2021/07/25 04:54:30;;;;;;;1.73;0.80;;;21.30;99.90;;;;;;6217799;23;20176;-96
2021/07/25 04:57:06;;;;;;;2.30;0.80;;;21.30;99.90;;;;;;6217405;23;20228;-96
2021/07/25 04:59:47;;;;;;;0.97;0.50;;;21.20;99.90;;;;;;6193437;23;20183;-96
2021/07/25 05:02:21;;;;;;;1.20;0.60;;;21.10;99.90;;;;;;6192735;23;20230;-96
2021/07/25 05:04:55;;;;;;;3.27;1.03;;;21.00;99.90;;;;;;6217288;23;20223;-96
2021/07/25 05:07:28;;;;;;;2.17;0.93;;;20.90;99.90;;;;;;6219888;23;20218;-96
2021/07/25 05:10:03;;;;;;;1.83;0.77;;;20.70;99.90;;;;;;6201491;23;20193;-96
2021/07/25 05:12:40;;;;;;;1.27;0.50;;;20.50;99.90;;;;;;6217948;23;20191;-96
2021/07/25 05:15:18;;;;;;;0.83;0.50;;;20.40;99.90;;;;;;6217779;23;20203;-96
2021/07/25 05:17:57;;;;;;;2.33;0.60;;;20.20;99.90;;;;;;6220644;23;20518;-96
2021/07/25 05:20:36;;;;;;;0.67;0.40;;;20.10;99.90;;;;;;6221296;23;20172;-96
2021/07/25 05:23:19;;;;;;;1.70;0.50;;;20.10;99.90;;;;;;6230104;22;20198;-96
2021/07/25 05:25:54;;;;;;;0.90;0.60;;;19.90;99.90;;;;;;6241798;22;20164;-96
2021/07/25 05:28:26;;;;;;;1.30;0.57;;;19.80;99.90;;;;;;6241483;22;20174;-96
2021/07/25 05:30:59;;;;;;;1.67;0.70;;;19.80;99.90;;;;;;6225996;23;20176;-96
2021/07/25 05:33:30;;;;;;;1.60;0.70;;;19.70;99.90;;;;;;6220080;23;20188;-96
2021/07/25 05:36:01;;;;;;;0.83;0.40;;;19.70;99.90;;;;;;6218487;23;20207;-96
2021/07/25 05:38:32;;;;;;;1.53;0.70;;;19.60;99.90;;;;;;6217881;23;20187;-96
2021/07/25 05:41:06;;;;;;;0.80;0.50;;;19.60;99.90;;;;;;6191565;23;20172;-96
2021/07/25 05:43:38;;;;;;;0.57;0.50;;;19.60;99.90;;;;;;6216712;23;20638;-96
2021/07/25 05:46:09;;;;;;;1.70;0.63;;;19.60;99.90;;;;;;6218062;23;20165;-96
2021/07/25 05:48:41;;;;;;;1.23;0.50;;;19.50;99.90;;;;;;6218035;23;20168;-96
2021/07/25 05:51:12;;;;;;;1.47;0.60;;;19.50;99.90;;;;;;6217960;23;20529;-96
2021/07/25 05:53:43;;;;;;;1.10;0.70;;;19.50;99.90;;;;;;6220638;23;20180;-96
2021/07/25 05:56:16;;;;;;;1.10;0.60;;;19.40;99.90;;;;;;6194295;23;20204;-96
2021/07/25 05:58:47;;;;;;;1.40;0.70;;;19.40;99.90;;;;;;6217217;23;20234;-96
2021/07/25 06:01:18;;;;;;;1.07;0.60;;;19.30;99.90;;;;;;6217466;23;20203;-96
2021/07/25 06:03:49;;;;;;;0.80;0.60;;;19.30;99.90;;;;;;6219234;23;20172;-95
2021/07/25 06:06:20;;;;;;;0.80;0.60;;;19.30;99.90;;;;;;6219550;23;20168;-96
2021/07/25 06:08:51;;;;;;;1.67;0.73;;;19.20;99.90;;;;;;6219050;23;20176;-96
2021/07/25 06:11:28;;;;;;;1.57;0.70;;;19.20;99.90;;;;;;6217052;23;20208;-96
2021/07/25 06:13:59;;;;;;;1.13;0.60;;;19.20;99.90;;;;;;6217226;23;20191;-96
2021/07/25 06:16:30;;;;;;;1.43;0.70;;;19.20;99.90;;;;;;6216788;23;20200;-96
2021/07/25 06:19:02;;;;;;;2.47;0.80;;;19.10;99.90;;;;;;6217006;23;20179;-96
2021/07/25 06:21:33;;;;;;;3.03;0.70;;;19.10;99.90;;;;;;6215811;23;20172;-96
2021/07/25 06:24:05;;;;;;;0.83;0.57;;;19.10;99.90;;;;;;6216895;23;20255;-96
2021/07/25 06:26:39;;;;;;;1.63;0.77;;;19.00;99.90;;;;;;6192467;23;20196;-96
2021/07/25 06:29:11;;;;;;;1.03;0.70;;;18.90;99.90;;;;;;6192844;23;20176;-96
2021/07/25 06:31:43;;;;;;;1.50;0.87;;;18.90;99.90;;;;;;6189753;23;20215;-96
2021/07/25 06:34:14;;;;;;;0.97;0.70;;;18.90;99.90;;;;;;6216508;23;20623;-95
2021/07/25 06:36:45;;;;;;;2.13;0.60;;;18.90;99.90;;;;;;6217293;23;20227;-95
2021/07/25 06:39:16;;;;;;;4.20;0.80;;;18.80;99.90;;;;;;6217018;23;20673;-96
2021/07/25 06:41:49;;;;;;;1.50;0.80;;;18.80;99.90;;;;;;6190120;23;20243;-96
2021/07/25 06:44:21;;;;;;;2.10;0.70;;;18.80;99.90;;;;;;6216619;23;20271;-95
2021/07/25 06:46:53;;;;;;;3.23;0.83;;;18.70;99.90;;;;;;6192225;23;20173;-96
2021/07/25 06:49:24;;;;;;;1.50;0.70;;;18.70;99.90;;;;;;6218351;23;20541;-96
2021/07/25 06:51:56;;;;;;;3.47;0.80;;;18.60;99.90;;;;;;6217614;23;20200;-96
2021/07/25 06:54:28;;;;;;;1.57;0.80;;;18.50;99.90;;;;;;6194215;23;20179;-96
2021/07/25 06:57:01;;;;;;;1.63;0.53;;;18.40;99.90;;;;;;6235038;23;20211;-96
2021/07/25 06:59:32;;;;;;;3.37;0.90;;;18.40;99.90;;;;;;6240492;22;20183;-94
2021/07/25 07:02:06;;;;;;;1.33;0.70;;;18.40;99.90;;;;;;6213072;23;20184;-96
2021/07/25 07:04:38;;;;;;;2.07;0.70;;;18.40;99.90;;;;;;6229627;23;20177;-96
2021/07/25 07:07:09;;;;;;;2.23;0.80;;;18.30;99.90;;;;;;6230648;23;20176;-96
2021/07/25 07:09:40;;;;;;;1.07;0.80;;;18.30;99.90;;;;;;6231610;23;20176;-96
2021/07/25 07:12:13;;;;;;;0.70;0.70;;;18.30;99.90;;;;;;6229597;23;20192;-96
2021/07/25 07:14:45;;;;;;;2.77;0.70;;;18.20;99.90;;;;;;6230995;23;20173;-96
2021/07/25 07:17:16;;;;;;;0.97;0.63;;;18.20;99.90;;;;;;6225932;23;20211;-96
2021/07/25 07:19:47;;;;;;;2.23;0.77;;;18.20;99.90;;;;;;6219806;23;20176;-95
2021/07/25 07:22:28;;;;;;;1.30;0.70;;;18.20;99.90;;;;;;6219680;23;20180;-95
2021/07/25 07:25:02;;;;;;;1.30;0.80;;;18.10;99.90;;;;;;6221035;23;20176;-95
2021/07/25 07:27:36;;;;;;;1.20;0.47;;;18.00;99.90;;;;;;6221005;23;20187;-95
2021/07/25 07:30:08;;;;;;;2.10;0.70;;;18.00;99.90;;;;;;6220941;23;20169;-95
2021/07/25 07:32:40;;;;;;;2.77;0.80;;;18.00;99.90;;;;;;6171029;23;20199;-95
2021/07/25 07:35:12;;;;;;;2.00;0.87;;;17.90;99.90;;;;;;6225093;23;20168;-95
2021/07/25 07:37:43;;;;;;;2.70;0.80;;;17.90;99.90;;;;;;6200715;23;20215;-96
2021/07/25 07:40:16;;;;;;;1.83;0.70;;;17.90;99.90;;;;;;6234088;22;20180;-95
2021/07/25 07:42:49;;;;;;;1.27;0.60;;;17.80;99.90;;;;;;6241235;22;20153;-95
2021/07/25 07:45:20;;;;;;;2.93;0.80;;;17.80;99.90;;;;;;6242883;22;20157;-93
2021/07/25 07:47:52;;;;;;;3.17;0.70;;;17.90;99.90;;;;;;6243814;22;20161;-95
2021/07/25 07:50:23;;;;;;;3.73;0.73;;;17.90;99.90;;;;;;6243697;22;20168;-96
2021/07/25 07:52:54;;;;;;;1.60;0.90;;;17.80;99.90;;;;;;6243101;22;20175;-96
2021/07/25 07:55:25;;;;;;;1.30;0.80;;;17.80;99.90;;;;;;6242651;22;20184;-96
2021/07/25 07:57:59;;;;;;;1.90;0.93;;;17.80;99.90;;;;;;6230153;23;20271;-96
2021/07/25 08:00:29;;;;;;;2.30;0.70;;;17.80;99.90;;;;;;6219094;23;20196;-96
2021/07/25 08:03:04;;;;;;;1.03;0.70;;;17.80;99.90;;;;;;6218527;23;20248;-96
2021/07/25 08:05:36;;;;;;;1.67;0.77;;;17.80;99.90;;;;;;6194662;23;20180;-96
2021/07/25 08:08:07;;;;;;;2.07;0.80;;;17.80;99.90;;;;;;6218469;23;20176;-96
2021/07/25 08:10:40;;;;;;;1.20;0.80;;;17.70;99.90;;;;;;6219355;23;20191;-96
2021/07/25 08:13:14;;;;;;;1.83;0.90;;;17.70;99.90;;;;;;6220380;23;20176;-96
2021/07/25 08:15:46;;;;;;;3.00;0.90;;;17.80;99.90;;;;;;6220006;23;20295;-96
2021/07/25 08:18:17;;;;;;;1.93;0.77;;;17.70;99.90;;;;;;6220792;23;20224;-96
2021/07/25 08:20:52;;;;;;;3.17;1.10;;;17.70;99.90;;;;;;6222348;23;20180;-96
2021/07/25 08:23:25;;;;;;;2.73;0.90;;;17.60;99.90;;;;;;6221970;23;20164;-96
2021/07/25 08:25:56;;;;;;;2.13;1.00;;;17.60;99.90;;;;;;6222078;23;20169;-96
2021/07/25 08:31:06;;;;;;;2.33;0.80;;;17.60;99.90;;;;;;6254270;22;20225;-96
2021/07/25 08:33:38;;;;;;;2.07;0.70;;;17.60;99.90;;;;;;6253171;23;20206;-96
2021/07/25 08:36:10;;;;;;;2.23;0.80;;;17.60;99.90;;;;;;6252285;23;20230;-96
2021/07/25 08:38:42;;;;;;;1.87;0.97;;;17.60;99.90;;;;;;6252641;23;20199;-96
2021/07/25 08:41:47;;;;;;;1.83;1.00;;;17.60;99.90;;;;;;6241265;23;20206;-95
2021/07/25 08:44:55;;;;;;;2.73;0.80;;;17.60;99.90;;;;;;6252067;23;20630;-95
2021/07/25 08:47:38;;;;;;;2.30;0.80;;;17.50;99.90;;;;;;6183286;23;20525;-95
2021/07/25 08:50:15;;;;;;;1.13;0.70;;;17.60;99.90;;;;;;6253204;23;20168;-96
2021/07/25 08:52:47;;;;;;;1.70;1.00;;;17.50;99.90;;;;;;6263939;23;20167;-95
2021/07/25 08:55:22;;;;;;;4.70;1.10;;;17.50;99.90;;;;;;6272045;22;20183;-95
2021/07/25 08:57:54;;;;;;;1.23;0.80;;;17.50;99.90;;;;;;6270683;23;20195;-96
2021/07/25 09:00:27;;;;;;;4.57;1.00;;;17.50;99.90;;;;;;6270332;22;20175;-94
2021/07/25 09:03:02;;;;;;;1.67;0.80;;;17.40;99.90;;;;;;6270557;22;20168;-96
2021/07/25 09:05:33;;;;;;;3.30;1.00;;;17.30;99.90;;;;;;6262230;23;20171;-96
2021/07/25 09:08:08;;;;;;;2.33;0.80;;;17.20;99.90;;;;;;6259086;23;20171;-95
2021/07/25 09:10:41;;;;;;;2.20;0.90;;;17.20;99.90;;;;;;6271340;22;20176;-96
2021/07/25 09:13:12;;;;;;;1.50;0.93;;;17.20;99.90;;;;;;6261579;23;20630;-96
2021/07/25 09:15:44;;;;;;;2.87;1.20;;;17.10;99.90;;;;;;6253567;23;20231;-96
2021/07/25 09:18:18;;;;;;;1.80;1.17;;;17.10;99.90;;;;;;6230097;23;20611;-96
2021/07/25 09:20:52;;;;;;;2.43;1.03;;;17.10;99.90;;;;;;6254013;23;20175;-96
2021/07/25 09:23:24;;;;;;;1.57;0.90;;;17.00;99.90;;;;;;6254354;23;20176;-96
2021/07/25 09:25:57;;;;;;;2.17;1.00;;;17.00;99.90;;;;;;6229184;23;20175;-96
2021/07/25 09:28:36;;;;;;;3.23;1.00;;;16.90;99.90;;;;;;6255043;23;20179;-96
2021/07/25 09:31:16;;;;;;;3.60;1.20;;;16.80;99.90;;;;;;6226867;23;20206;-96
2021/07/25 09:33:49;;;;;;;2.57;0.93;;;16.80;99.90;;;;;;6249762;23;20191;-96
2021/07/25 09:36:24;;;;;;;2.03;0.90;;;16.80;99.90;;;;;;6251306;23;20184;-96
2021/07/25 09:38:57;;;;;;;2.63;0.80;;;16.80;99.90;;;;;;6253378;23;20210;-96
2021/07/25 09:41:30;;;;;;;2.63;1.27;;;16.70;99.90;;;;;;6253123;23;20194;-96
2021/07/25 09:44:04;;;;;;;2.90;1.00;;;16.70;99.90;;;;;;6254041;23;20528;-96
2021/07/25 09:46:50;;;;;;;4.10;1.03;;;16.70;99.90;;;;;;6226006;23;20191;-96
2021/07/25 09:49:44;;;;;;;2.20;1.20;;;16.70;99.90;;;;;;6251398;23;20191;-96
2021/07/25 09:52:16;;;;;;;3.33;1.27;;;16.60;99.90;;;;;;6250475;23;20630;-96
2021/07/25 09:54:56;;;;;;;3.37;1.03;;;16.50;99.90;;;;;;6249936;23;20626;-96
2021/07/25 09:57:28;;;;;;;2.20;0.90;;;16.60;99.90;;;;;;6256087;23;20212;-96
2021/07/25 10:00:07;;;;;;;2.17;1.03;;;16.50;99.90;;;;;;6254244;23;20191;-96
2021/07/25 10:02:41;;;;;;;3.83;1.20;;;16.50;99.90;;;;;;6253923;23;20187;-96
2021/07/25 10:05:17;;;;;;;3.77;1.10;;;16.50;99.90;;;;;;6254039;23;20209;-96
2021/07/25 10:07:49;;;;;;;2.33;1.20;;;16.50;99.90;;;;;;6267445;22;20198;-96
2021/07/25 10:10:21;;;;;;;1.97;1.00;;;16.50;99.90;;;;;;6272001;22;20179;-96
2021/07/25 10:12:52;;;;;;;2.87;1.37;;;16.50;99.90;;;;;;6268716;22;20187;-96
2021/07/25 10:15:24;;;;;;;4.93;1.53;;;16.40;99.90;;;;;;6248705;23;20258;-96
2021/07/25 10:17:57;;;;;;;1.97;1.20;;;16.40;99.90;;;;;;6249073;23;20199;-96
2021/07/25 10:20:32;;;;;;;2.73;1.20;;;16.40;99.90;;;;;;6248683;23;20261;-96
2021/07/25 10:23:06;;;;;;;2.97;1.20;;;16.30;99.90;;;;;;6248090;23;20191;-96
2021/07/25 10:25:39;;;;;;;2.57;1.20;;;16.30;99.90;;;;;;6226332;23;20160;-96
2021/07/25 10:28:12;;;;;;;2.63;1.27;;;16.30;99.90;;;;;;6251908;23;20255;-96
2021/07/25 10:30:44;;;;;;;2.93;1.20;;;16.20;99.90;;;;;;6248306;23;20229;-96
2021/07/25 10:33:17;;;;;;;2.10;1.10;;;16.20;99.90;;;;;;6246394;23;20190;-95
2021/07/25 10:35:53;;;;;;;4.60;1.80;;;16.10;99.90;;;;;;6248232;23;20210;-96
2021/07/25 10:38:24;;;;;;;4.10;1.83;;;16.10;99.90;;;;;;6248470;23;20277;-96
2021/07/25 10:40:56;;;;;;;2.67;1.27;;;16.10;99.90;;;;;;6249632;23;20183;-96
2021/07/25 10:43:30;;;;;;;2.63;1.20;;;16.10;99.90;;;;;;6249699;23;20187;-96
2021/07/25 10:46:22;;;;;;;3.77;1.20;;;16.10;99.90;;;;;;6252168;23;20184;-96
2021/07/25 10:49:16;;;;;;;2.83;1.30;;;16.00;99.90;;;;;;6250591;23;20256;-96
2021/07/25 10:52:00;;;;;;;2.07;0.90;;;16.00;99.90;;;;;;6200256;23;20184;-96
2021/07/25 10:54:34;;;;;;;2.27;1.23;;;16.00;99.90;;;;;;6226028;23;20191;-96
2021/07/25 10:57:06;;;;;;;4.53;1.43;;;16.00;99.90;;;;;;6258619;23;20175;-96
2021/07/25 10:59:42;;;;;;;2.83;1.40;;;15.90;99.90;;;;;;6265756;23;20584;-96
2021/07/25 11:02:14;;;;;;;3.93;1.40;;;15.90;99.90;;;;;;6261916;23;20185;-96
2021/07/25 11:05:07;;;;;;;4.17;1.40;;;15.90;99.90;;;;;;6239807;23;20171;-96
2021/07/25 11:07:41;;;;;;;1.80;1.13;;;15.90;99.90;;;;;;6260669;23;20245;-96
2021/07/25 11:10:16;;;;;;;3.27;1.10;;;15.90;99.90;;;;;;6266403;22;20190;-96
2021/07/25 11:13:20;;;;;;;2.53;1.30;;;15.80;99.90;;;;;;6253054;23;20183;-96
2021/07/25 11:15:52;;;;;;;2.47;1.27;;;15.80;99.90;;;;;;6249066;23;20213;-96
2021/07/25 11:18:36;;;;;;;3.87;1.37;;;15.70;99.90;;;;;;6247761;23;20200;-96
2021/07/25 11:21:12;;;;;;;3.83;1.53;;;15.70;99.90;;;;;;6223649;23;20239;-96
2021/07/25 11:23:45;;;;;;;4.67;1.57;;;15.70;99.90;;;;;;6249980;23;20191;-96
2021/07/25 11:26:38;;;;;;;2.93;1.07;;;15.70;99.90;;;;;;6250139;23;20184;-96
2021/07/25 11:29:12;;;;;;;5.77;1.40;;;15.70;99.90;;;;;;6250967;23;20183;-96
2021/07/25 11:31:48;;;;;;;3.80;1.40;;;15.60;99.90;;;;;;6251075;23;20196;-96
2021/07/25 11:34:31;;;;;;;2.57;1.43;;;15.60;99.90;;;;;;6251765;23;20622;-96
2021/07/25 11:37:05;;;;;;;3.53;1.30;;;15.50;99.90;;;;;;6250859;23;20186;-96
2021/07/25 11:40:00;;;;;;;2.43;1.30;;;15.50;99.90;;;;;;6251310;23;20258;-96
2021/07/25 11:42:32;;;;;;;2.67;1.40;;;15.50;99.90;;;;;;6254558;23;20183;-95
2021/07/25 11:45:06;;;;;;;2.53;1.20;;;15.50;99.90;;;;;;6255877;23;20242;-96
2021/07/25 11:47:38;;;;;;;3.60;1.10;;;15.50;99.90;;;;;;6253992;23;20190;-96
2021/07/25 11:50:10;;;;;;;6.17;1.17;;;15.50;99.90;;;;;;6258253;23;20243;-95
2021/07/25 11:52:41;;;;;;;3.47;1.43;;;15.40;99.90;;;;;;6232834;23;20638;-94
2021/07/25 11:55:15;;;;;;;3.40;1.17;;;15.40;99.90;;;;;;6259004;23;20211;-95
2021/07/25 11:57:49;;;;;;;3.03;1.23;;;15.40;99.90;;;;;;6260359;23;20190;-95
2021/07/25 12:00:22;;;;;;;1.90;1.10;;;15.40;99.90;;;;;;6256527;23;20203;-96
2021/07/25 12:02:59;;;;;;;2.70;1.17;;;15.40;99.90;;;;;;6254317;23;20188;-96
2021/07/25 12:05:31;;;;;;;1.93;1.07;;;15.40;99.90;;;;;;6253110;23;20576;-96
2021/07/25 12:08:12;;;;;;;4.20;1.47;;;15.30;99.90;;;;;;6253217;23;20187;-96
2021/07/25 12:10:48;;;;;;;2.00;1.17;;;15.30;99.90;;;;;;6225905;23;20579;-96
2021/07/25 12:13:20;;;;;;;2.33;1.30;;;15.30;99.90;;;;;;6248929;23;20203;-95
2021/07/25 12:15:53;;;;;;;6.10;1.40;;;15.30;99.90;;;;;;6249854;23;20234;-96
2021/07/25 12:18:34;;;;;;;3.13;1.60;;;15.30;99.90;;;;;;6250813;23;20191;-95
2021/07/25 12:21:25;;;;;;;3.83;1.77;;;15.30;99.90;;;;;;6250597;23;20654;-96
2021/07/25 12:23:56;;;;;;;3.20;1.23;;;15.30;99.90;;;;;;6266707;22;20262;-96
2021/07/25 12:26:45;;;;;;;5.03;1.47;;;15.30;99.90;;;;;;6247179;23;20184;-96
2021/07/25 12:29:41;;;;;;;2.87;1.53;;;15.20;99.90;;;;;;6267609;22;20191;-96
2021/07/25 12:32:23;;;;;;;2.40;1.20;;;15.20;99.90;;;;;;6248467;23;20207;-95
2021/07/25 12:34:56;;;;;;;3.47;1.40;;;15.20;99.90;;;;;;6250932;23;20703;-95
2021/07/25 12:37:28;;;;;;;4.10;1.40;;;15.20;99.90;;;;;;6225503;23;20196;-94
2021/07/25 12:40:11;;;;;;;3.17;1.40;;;15.20;99.90;;;;;;6251742;23;20207;-96
2021/07/25 12:42:51;;;;;;;3.73;1.60;;;15.10;99.90;;;;;;6224593;23;20242;-96
2021/07/25 12:45:43;;;;;;;3.97;1.67;;;15.20;99.90;;;;;;6252054;23;20190;-96
2021/07/25 12:48:38;;;;;;;3.60;1.83;;;15.10;99.90;;;;;;6253362;23;20682;-96
2021/07/25 12:51:19;;;;;;;3.60;1.83;;;15.10;99.90;;;;;;6255027;23;20183;-96
2021/07/25 12:54:00;;;;;;;5.53;1.53;;;15.10;99.90;;;;;;6253930;23;20183;-96
2021/07/25 12:56:32;;;;;;;2.57;1.53;;;15.10;99.90;;;;;;6254720;23;20178;-96
2021/07/25 12:59:09;;;;;;;2.50;1.67;;;15.10;99.90;;;;;;6256326;23;20634;-96
2021/07/25 13:04:29;;;;;;;3.07;1.50;;;15.10;99.90;;;;;;6256233;23;20187;-96
2021/07/25 13:07:00;;;;;;;2.00;1.23;;;15.00;99.90;;;;;;6260429;23;20191;-96
2021/07/25 13:09:32;;;;;;;3.80;1.87;;;15.10;99.90;;;;;;6272950;22;20171;-96
2021/07/25 13:12:03;;;;;;;2.13;1.30;;;15.10;99.90;;;;;;6272034;22;20247;-96
2021/07/25 13:14:36;;;;;;;2.87;1.47;;;15.10;99.90;;;;;;6272554;22;20168;-96
2021/07/25 13:17:08;;;;;;;4.90;1.73;;;15.10;99.90;;;;;;6272364;22;20206;-96
2021/07/25 13:19:40;;;;;;;2.70;1.30;;;15.20;99.90;;;;;;6271482;22;20263;-96
2021/07/25 13:22:11;;;;;;;3.77;1.70;;;15.20;99.90;;;;;;6269218;23;20218;-96
2021/07/25 13:24:42;;;;;;;2.20;1.50;;;15.20;99.90;;;;;;6255184;23;20191;-96
2021/07/25 13:27:13;;;;;;;3.57;1.73;;;15.20;99.90;;;;;;6249358;23;20187;-95
2021/07/25 13:29:48;;;;;;;2.83;1.60;;;15.30;99.90;;;;;;6250534;23;20210;-95
2021/07/25 13:32:20;;;;;;;2.73;1.57;;;15.30;99.90;;;;;;6249007;23;20187;-95